sensor_id;sensor_type;location;lat;lon;timestamp;pressure;altitude;pressure_sealevel;temperature;humidity
63916;BME280;50094;51.356;-0.196;2023-01-05T00:01:10;101142.40;;;25.04;30.54
63916;BME280;50094;51.356;-0.196;2023-01-05T00:03:38;101143.76;;;25.07;30.52
63916;BME280;50094;51.356;-0.196;2023-01-05T00:06:08;101148.87;;;25.00;30.55
63916;BME280;50094;51.356;-0.196;2023-01-05T00:08:36;101162.61;;;25.43;30.60
63916;BME280;50094;51.356;-0.196;2023-01-05T00:11:04;101166.85;;;25.19;30.55
63916;BME280;50094;51.356;-0.196;2023-01-05T00:13:31;101160.20;;;24.86;30.53
63916;BME280;50094;51.356;-0.196;2023-01-05T00:15:58;101160.28;;;24.76;30.54
63916;BME280;50094;51.356;-0.196;2023-01-05T00:18:25;101157.68;;;24.93;30.55
63916;BME280;50094;51.356;-0.196;2023-01-05T00:20:53;101156.08;;;24.89;30.54
63916;BME280;50094;51.356;-0.196;2023-01-05T00:23:20;101155.32;;;24.82;30.58
63916;BME280;50094;51.356;-0.196;2023-01-05T00:25:48;101160.31;;;24.78;30.63
63916;BME280;50094;51.356;-0.196;2023-01-05T00:28:15;101158.22;;;24.85;30.67
63916;BME280;50094;51.356;-0.196;2023-01-05T00:30:45;101158.27;;;24.67;30.64
63916;BME280;50094;51.356;-0.196;2023-01-05T00:33:14;101159.62;;;24.71;30.60
63916;BME280;50094;51.356;-0.196;2023-01-05T00:35:41;101160.34;;;24.71;30.58
63916;BME280;50094;51.356;-0.196;2023-01-05T00:38:09;101166.53;;;24.72;30.60
63916;BME280;50094;51.356;-0.196;2023-01-05T00:40:37;101168.79;;;24.79;30.60
63916;BME280;50094;51.356;-0.196;2023-01-05T00:43:04;101169.09;;;24.72;30.56
63916;BME280;50094;51.356;-0.196;2023-01-05T00:45:31;101165.16;;;24.94;30.47
63916;BME280;50094;51.356;-0.196;2023-01-05T00:47:59;101160.55;;;24.98;30.46
63916;BME280;50094;51.356;-0.196;2023-01-05T00:50:26;101156.96;;;24.92;30.47
63916;BME280;50094;51.356;-0.196;2023-01-05T00:52:52;101160.38;;;24.87;30.46
63916;BME280;50094;51.356;-0.196;2023-01-05T00:55:19;101156.13;;;24.82;30.49
63916;BME280;50094;51.356;-0.196;2023-01-05T00:57:46;101150.82;;;24.58;30.55
63916;BME280;50094;51.356;-0.196;2023-01-05T01:00:16;101160.99;;;25.02;30.54
63916;BME280;50094;51.356;-0.196;2023-01-05T01:02:49;101166.31;;;24.47;30.53
63916;BME280;50094;51.356;-0.196;2023-01-05T01:05:17;101165.25;;;24.64;30.65
63916;BME280;50094;51.356;-0.196;2023-01-05T01:07:45;101168.57;;;24.62;30.63
63916;BME280;50094;51.356;-0.196;2023-01-05T01:10:12;101169.68;;;24.61;30.69
63916;BME280;50094;51.356;-0.196;2023-01-05T01:12:40;101170.52;;;24.53;30.70
63916;BME280;50094;51.356;-0.196;2023-01-05T01:15:08;101180.84;;;24.33;30.68
63916;BME280;50094;51.356;-0.196;2023-01-05T01:17:36;101181.58;;;24.54;30.66
63916;BME280;50094;51.356;-0.196;2023-01-05T01:20:04;101184.08;;;24.55;30.65
63916;BME280;50094;51.356;-0.196;2023-01-05T01:22:31;101181.31;;;24.57;30.69
63916;BME280;50094;51.356;-0.196;2023-01-05T01:25:04;101191.53;;;24.53;30.70
63916;BME280;50094;51.356;-0.196;2023-01-05T01:27:32;101199.34;;;24.54;30.74
63916;BME280;50094;51.356;-0.196;2023-01-05T01:29:59;101196.43;;;24.76;30.71
63916;BME280;50094;51.356;-0.196;2023-01-05T01:32:27;101202.51;;;24.78;30.66
63916;BME280;50094;51.356;-0.196;2023-01-05T01:34:54;101200.47;;;24.79;30.69
63916;BME280;50094;51.356;-0.196;2023-01-05T01:37:21;101202.27;;;24.43;30.69
63916;BME280;50094;51.356;-0.196;2023-01-05T01:39:48;101204.39;;;24.69;30.72
63916;BME280;50094;51.356;-0.196;2023-01-05T01:42:16;101201.64;;;24.58;30.74
63916;BME280;50094;51.356;-0.196;2023-01-05T01:44:54;101202.48;;;24.61;30.72
63916;BME280;50094;51.356;-0.196;2023-01-05T01:47:27;101205.88;;;24.24;30.72
63916;BME280;50094;51.356;-0.196;2023-01-05T01:49:57;101203.08;;;24.47;30.73
63916;BME280;50094;51.356;-0.196;2023-01-05T01:52:27;101207.79;;;24.45;30.72
63916;BME280;50094;51.356;-0.196;2023-01-05T01:54:55;101205.85;;;24.09;30.73
63916;BME280;50094;51.356;-0.196;2023-01-05T01:57:24;101204.78;;;24.12;30.74
63916;BME280;50094;51.356;-0.196;2023-01-05T01:59:52;101204.07;;;24.46;30.75
63916;BME280;50094;51.356;-0.196;2023-01-05T02:02:21;101210.30;;;24.41;30.75
63916;BME280;50094;51.356;-0.196;2023-01-05T02:04:49;101208.23;;;24.21;30.76
63916;BME280;50094;51.356;-0.196;2023-01-05T02:07:17;101204.26;;;24.26;30.77
63916;BME280;50094;51.356;-0.196;2023-01-05T02:09:45;101208.75;;;24.55;30.73
63916;BME280;50094;51.356;-0.196;2023-01-05T02:12:22;101212.84;;;24.56;30.71
63916;BME280;50094;51.356;-0.196;2023-01-05T02:14:59;101213.02;;;24.63;30.73
63916;BME280;50094;51.356;-0.196;2023-01-05T02:17:38;101214.79;;;24.36;30.70
63916;BME280;50094;51.356;-0.196;2023-01-05T02:20:28;101221.18;;;24.34;30.69
63916;BME280;50094;51.356;-0.196;2023-01-05T02:23:22;101222.18;;;24.55;30.69
63916;BME280;50094;51.356;-0.196;2023-01-05T02:26:14;101224.27;;;24.58;30.66
63916;BME280;50094;51.356;-0.196;2023-01-05T02:29:00;101228.66;;;24.53;30.66
63916;BME280;50094;51.356;-0.196;2023-01-05T02:31:36;101234.86;;;24.55;30.71
63916;BME280;50094;51.356;-0.196;2023-01-05T02:34:13;101233.13;;;24.55;30.75
63916;BME280;50094;51.356;-0.196;2023-01-05T02:36:51;101230.84;;;24.34;30.74
63916;BME280;50094;51.356;-0.196;2023-01-05T02:39:25;101232.13;;;24.35;30.76
63916;BME280;50094;51.356;-0.196;2023-01-05T02:41:57;101236.84;;;24.39;30.74
63916;BME280;50094;51.356;-0.196;2023-01-05T02:44:28;101243.82;;;24.66;30.76
63916;BME280;50094;51.356;-0.196;2023-01-05T02:47:00;101245.69;;;24.36;30.76
63916;BME280;50094;51.356;-0.196;2023-01-05T02:49:28;101245.20;;;24.57;30.74
63916;BME280;50094;51.356;-0.196;2023-01-05T02:51:56;101243.70;;;24.37;30.71
63916;BME280;50094;51.356;-0.196;2023-01-05T02:54:30;101242.17;;;24.63;30.74
63916;BME280;50094;51.356;-0.196;2023-01-05T02:57:05;101241.75;;;24.34;30.70
63916;BME280;50094;51.356;-0.196;2023-01-05T02:59:40;101243.65;;;24.62;30.68
63916;BME280;50094;51.356;-0.196;2023-01-05T03:02:11;101244.98;;;24.35;30.71
63916;BME280;50094;51.356;-0.196;2023-01-05T03:04:43;101249.65;;;24.64;30.73
63916;BME280;50094;51.356;-0.196;2023-01-05T03:07:19;101249.82;;;24.65;30.76
63916;BME280;50094;51.356;-0.196;2023-01-05T03:09:50;101249.34;;;24.45;30.75
63916;BME280;50094;51.356;-0.196;2023-01-05T03:12:21;101256.45;;;24.71;30.72
63916;BME280;50094;51.356;-0.196;2023-01-05T03:14:53;101259.97;;;24.60;30.79
63916;BME280;50094;51.356;-0.196;2023-01-05T03:17:25;101267.18;;;24.65;30.77
63916;BME280;50094;51.356;-0.196;2023-01-05T03:19:55;101268.99;;;24.63;30.80
63916;BME280;50094;51.356;-0.196;2023-01-05T03:22:26;101265.31;;;24.41;30.78
63916;BME280;50094;51.356;-0.196;2023-01-05T03:24:55;101270.05;;;24.40;30.78
63916;BME280;50094;51.356;-0.196;2023-01-05T03:27:23;101273.24;;;24.43;30.76
63916;BME280;50094;51.356;-0.196;2023-01-05T03:29:52;101275.09;;;24.66;30.77
63916;BME280;50094;51.356;-0.196;2023-01-05T03:32:22;101273.77;;;24.65;30.73
63916;BME280;50094;51.356;-0.196;2023-01-05T03:34:53;101269.89;;;24.33;30.77
63916;BME280;50094;51.356;-0.196;2023-01-05T03:37:29;101266.80;;;24.36;30.76
63916;BME280;50094;51.356;-0.196;2023-01-05T03:39:58;101268.66;;;24.48;30.73
63916;BME280;50094;51.356;-0.196;2023-01-05T03:42:28;101265.93;;;24.49;30.71
63916;BME280;50094;51.356;-0.196;2023-01-05T03:44:57;101265.60;;;24.74;30.70
63916;BME280;50094;51.356;-0.196;2023-01-05T03:47:24;101264.14;;;24.48;30.70
63916;BME280;50094;51.356;-0.196;2023-01-05T03:49:51;101263.89;;;24.49;30.69
63916;BME280;50094;51.356;-0.196;2023-01-05T03:52:18;101264.57;;;24.73;30.66
63916;BME280;50094;51.356;-0.196;2023-01-05T03:54:45;101266.01;;;24.43;30.67
63916;BME280;50094;51.356;-0.196;2023-01-05T03:57:12;101264.23;;;24.65;30.66
63916;BME280;50094;51.356;-0.196;2023-01-05T03:59:40;101265.11;;;24.35;30.64
63916;BME280;50094;51.356;-0.196;2023-01-05T04:02:06;101264.02;;;24.31;30.67
63916;BME280;50094;51.356;-0.196;2023-01-05T04:04:33;101265.52;;;24.57;30.68
63916;BME280;50094;51.356;-0.196;2023-01-05T04:07:00;101266.57;;;24.52;30.70
63916;BME280;50094;51.356;-0.196;2023-01-05T04:09:27;101266.28;;;24.54;30.72
63916;BME280;50094;51.356;-0.196;2023-01-05T04:11:55;101268.69;;;24.32;30.69
63916;BME280;50094;51.356;-0.196;2023-01-05T04:14:22;101270.94;;;24.54;30.73
63916;BME280;50094;51.356;-0.196;2023-01-05T04:16:49;101269.44;;;24.50;30.75
63916;BME280;50094;51.356;-0.196;2023-01-05T04:19:16;101269.60;;;24.48;30.76
63916;BME280;50094;51.356;-0.196;2023-01-05T04:21:43;101268.92;;;24.46;30.78
63916;BME280;50094;51.356;-0.196;2023-01-05T04:24:11;101269.80;;;24.48;30.78
63916;BME280;50094;51.356;-0.196;2023-01-05T04:26:38;101274.25;;;24.46;30.80
63916;BME280;50094;51.356;-0.196;2023-01-05T04:29:05;101275.26;;;24.23;30.78
63916;BME280;50094;51.356;-0.196;2023-01-05T04:31:33;101275.70;;;24.48;30.81
63916;BME280;50094;51.356;-0.196;2023-01-05T04:34:00;101280.37;;;24.46;30.82
63916;BME280;50094;51.356;-0.196;2023-01-05T04:36:26;101282.63;;;24.23;30.82
63916;BME280;50094;51.356;-0.196;2023-01-05T04:38:53;101287.08;;;24.49;30.82
63916;BME280;50094;51.356;-0.196;2023-01-05T04:41:20;101289.15;;;24.55;30.81
63916;BME280;50094;51.356;-0.196;2023-01-05T04:43:47;101291.29;;;24.26;30.81
63916;BME280;50094;51.356;-0.196;2023-01-05T04:46:14;101290.72;;;24.25;30.79
63916;BME280;50094;51.356;-0.196;2023-01-05T04:48:41;101294.16;;;24.49;30.81
63916;BME280;50094;51.356;-0.196;2023-01-05T04:51:08;101291.02;;;24.48;30.81
63916;BME280;50094;51.356;-0.196;2023-01-05T04:53:35;101292.44;;;24.48;30.83
63916;BME280;50094;51.356;-0.196;2023-01-05T04:56:03;101293.07;;;24.30;30.80
63916;BME280;50094;51.356;-0.196;2023-01-05T04:58:30;101286.76;;;24.53;30.80
63916;BME280;50094;51.356;-0.196;2023-01-05T05:00:57;101289.03;;;24.31;30.76
63916;BME280;50094;51.356;-0.196;2023-01-05T05:03:24;101289.63;;;24.32;30.76
63916;BME280;50094;51.356;-0.196;2023-01-05T05:05:51;101293.71;;;24.53;30.76
63916;BME280;50094;51.356;-0.196;2023-01-05T05:08:18;101291.23;;;24.25;30.77
63916;BME280;50094;51.356;-0.196;2023-01-05T05:10:45;101289.79;;;24.25;30.78
63916;BME280;50094;51.356;-0.196;2023-01-05T05:13:12;101288.74;;;24.23;30.78
63916;BME280;50094;51.356;-0.196;2023-01-05T05:15:39;101288.60;;;24.25;30.77
63916;BME280;50094;51.356;-0.196;2023-01-05T05:18:07;101291.69;;;24.49;30.79
63916;BME280;50094;51.356;-0.196;2023-01-05T05:20:34;101288.83;;;24.21;30.76
63916;BME280;50094;51.356;-0.196;2023-01-05T05:23:01;101290.82;;;24.20;30.77
63916;BME280;50094;51.356;-0.196;2023-01-05T05:25:28;101287.10;;;24.49;30.78
63916;BME280;50094;51.356;-0.196;2023-01-05T05:27:55;101288.25;;;24.45;30.77
63916;BME280;50094;51.356;-0.196;2023-01-05T05:30:23;101289.17;;;24.18;30.79
63916;BME280;50094;51.356;-0.196;2023-01-05T05:32:50;101292.45;;;24.39;30.83
63916;BME280;50094;51.356;-0.196;2023-01-05T05:35:17;101290.86;;;24.39;30.84
63916;BME280;50094;51.356;-0.196;2023-01-05T05:37:44;101291.81;;;24.60;30.88
63916;BME280;50094;51.356;-0.196;2023-01-05T05:40:12;101292.43;;;24.19;30.90
63916;BME280;50094;51.356;-0.196;2023-01-05T05:42:40;101292.30;;;24.21;30.95
63916;BME280;50094;51.356;-0.196;2023-01-05T05:45:08;101294.86;;;24.53;30.97
63916;BME280;50094;51.356;-0.196;2023-01-05T05:47:35;101292.00;;;24.24;31.01
63916;BME280;50094;51.356;-0.196;2023-01-05T05:50:03;101291.79;;;24.28;31.03
63916;BME280;50094;51.356;-0.196;2023-01-05T05:52:30;101297.60;;;24.30;31.04
63916;BME280;50094;51.356;-0.196;2023-01-05T05:54:57;101300.82;;;24.60;31.09
63916;BME280;50094;51.356;-0.196;2023-01-05T05:57:24;101308.36;;;24.41;31.12
63916;BME280;50094;51.356;-0.196;2023-01-05T05:59:51;101303.75;;;24.72;31.14
63916;BME280;50094;51.356;-0.196;2023-01-05T06:02:19;101308.68;;;24.46;31.14
63916;BME280;50094;51.356;-0.196;2023-01-05T06:04:46;101307.63;;;24.27;31.14
63916;BME280;50094;51.356;-0.196;2023-01-05T06:07:13;101309.32;;;24.51;31.17
63916;BME280;50094;51.356;-0.196;2023-01-05T06:09:40;101310.77;;;24.37;31.16
63916;BME280;50094;51.356;-0.196;2023-01-05T06:12:07;101315.86;;;24.90;31.17
63916;BME280;50094;51.356;-0.196;2023-01-05T06:14:34;101316.72;;;24.69;31.16
63916;BME280;50094;51.356;-0.196;2023-01-05T06:17:01;101314.39;;;24.68;31.16
63916;BME280;50094;51.356;-0.196;2023-01-05T06:19:28;101310.12;;;24.98;31.14
63916;BME280;50094;51.356;-0.196;2023-01-05T06:21:55;101312.40;;;24.94;31.16
63916;BME280;50094;51.356;-0.196;2023-01-05T06:24:22;101307.45;;;24.74;31.15
63916;BME280;50094;51.356;-0.196;2023-01-05T06:26:49;101309.68;;;24.52;31.18
63916;BME280;50094;51.356;-0.196;2023-01-05T06:29:16;101311.21;;;24.56;31.17
63916;BME280;50094;51.356;-0.196;2023-01-05T06:31:43;101309.44;;;24.77;31.19
63916;BME280;50094;51.356;-0.196;2023-01-05T06:34:10;101311.97;;;24.50;31.19
63916;BME280;50094;51.356;-0.196;2023-01-05T06:36:38;101312.46;;;24.76;31.16
63916;BME280;50094;51.356;-0.196;2023-01-05T06:39:05;101312.67;;;24.80;31.15
63916;BME280;50094;51.356;-0.196;2023-01-05T06:41:32;101314.12;;;24.87;31.12
63916;BME280;50094;51.356;-0.196;2023-01-05T06:44:00;101316.59;;;24.89;31.10
63916;BME280;50094;51.356;-0.196;2023-01-05T06:46:27;101315.35;;;24.89;31.08
63916;BME280;50094;51.356;-0.196;2023-01-05T06:48:54;101315.87;;;24.90;31.06
63916;BME280;50094;51.356;-0.196;2023-01-05T06:51:22;101313.85;;;24.93;31.03
63916;BME280;50094;51.356;-0.196;2023-01-05T06:53:49;101313.11;;;24.94;31.00
63916;BME280;50094;51.356;-0.196;2023-01-05T06:56:16;101309.85;;;24.66;30.99
63916;BME280;50094;51.356;-0.196;2023-01-05T06:58:42;101310.31;;;24.72;30.96
63916;BME280;50094;51.356;-0.196;2023-01-05T07:01:09;101305.72;;;24.74;30.94
63916;BME280;50094;51.356;-0.196;2023-01-05T07:03:36;101304.34;;;24.92;30.93
63916;BME280;50094;51.356;-0.196;2023-01-05T07:06:03;101305.65;;;24.70;30.91
63916;BME280;50094;51.356;-0.196;2023-01-05T07:08:31;101305.77;;;24.80;30.86
63916;BME280;50094;51.356;-0.196;2023-01-05T07:10:58;101306.04;;;24.94;30.85
63916;BME280;50094;51.356;-0.196;2023-01-05T07:13:25;101307.17;;;24.75;30.83
63916;BME280;50094;51.356;-0.196;2023-01-05T07:15:52;101307.34;;;24.71;30.83
63916;BME280;50094;51.356;-0.196;2023-01-05T07:18:19;101307.79;;;25.24;30.79
63916;BME280;50094;51.356;-0.196;2023-01-05T07:20:46;101308.39;;;24.47;30.78
63916;BME280;50094;51.356;-0.196;2023-01-05T07:23:12;101304.61;;;24.87;30.81
63916;BME280;50094;51.356;-0.196;2023-01-05T07:25:39;101299.88;;;24.83;30.82
63916;BME280;50094;51.356;-0.196;2023-01-05T07:28:06;101299.34;;;24.58;30.84
63916;BME280;50094;51.356;-0.196;2023-01-05T07:30:34;101299.77;;;24.59;30.84
63916;BME280;50094;51.356;-0.196;2023-01-05T07:33:02;101302.42;;;24.64;30.84
63916;BME280;50094;51.356;-0.196;2023-01-05T07:35:29;101303.81;;;24.44;30.83
63916;BME280;50094;51.356;-0.196;2023-01-05T07:37:56;101303.69;;;24.74;30.89
63916;BME280;50094;51.356;-0.196;2023-01-05T07:40:23;101307.37;;;24.73;30.92
63916;BME280;50094;51.356;-0.196;2023-01-05T07:42:56;101305.27;;;24.46;30.97
63916;BME280;50094;51.356;-0.196;2023-01-05T07:45:23;101302.57;;;24.92;31.02
63916;BME280;50094;51.356;-0.196;2023-01-05T07:47:50;101301.57;;;24.67;31.02
63916;BME280;50094;51.356;-0.196;2023-01-05T07:50:18;101297.51;;;24.92;31.05
63916;BME280;50094;51.356;-0.196;2023-01-05T07:52:45;101295.22;;;24.61;31.06
63916;BME280;50094;51.356;-0.196;2023-01-05T07:55:12;101297.88;;;24.59;31.08
63916;BME280;50094;51.356;-0.196;2023-01-05T07:57:39;101296.28;;;24.87;31.09
63916;BME280;50094;51.356;-0.196;2023-01-05T08:00:08;101292.79;;;24.59;31.08
63916;BME280;50094;51.356;-0.196;2023-01-05T08:02:36;101294.70;;;24.92;31.05
63916;BME280;50094;51.356;-0.196;2023-01-05T08:05:04;101295.82;;;24.83;31.09
63916;BME280;50094;51.356;-0.196;2023-01-05T08:07:31;101293.03;;;24.80;31.10
63916;BME280;50094;51.356;-0.196;2023-01-05T08:09:58;101292.70;;;24.79;31.09
63916;BME280;50094;51.356;-0.196;2023-01-05T08:12:26;101289.99;;;24.51;31.09
63916;BME280;50094;51.356;-0.196;2023-01-05T08:14:53;101285.90;;;24.75;31.10
63916;BME280;50094;51.356;-0.196;2023-01-05T08:17:20;101284.63;;;24.68;31.14
63916;BME280;50094;51.356;-0.196;2023-01-05T08:19:47;101285.38;;;24.70;31.14
63916;BME280;50094;51.356;-0.196;2023-01-05T08:22:15;101280.18;;;24.69;31.14
63916;BME280;50094;51.356;-0.196;2023-01-05T08:24:41;101280.75;;;24.41;31.15
63916;BME280;50094;51.356;-0.196;2023-01-05T08:27:08;101283.68;;;24.69;31.14
63916;BME280;50094;51.356;-0.196;2023-01-05T08:29:35;101285.61;;;24.72;31.11
63916;BME280;50094;51.356;-0.196;2023-01-05T08:32:02;101277.67;;;24.42;31.11
63916;BME280;50094;51.356;-0.196;2023-01-05T08:34:30;101277.33;;;24.64;31.14
63916;BME280;50094;51.356;-0.196;2023-01-05T08:36:57;101273.43;;;24.67;31.13
63916;BME280;50094;51.356;-0.196;2023-01-05T08:39:24;101276.44;;;24.39;31.13
63916;BME280;50094;51.356;-0.196;2023-01-05T08:41:51;101279.37;;;24.70;31.11
63916;BME280;50094;51.356;-0.196;2023-01-05T08:44:18;101276.82;;;24.66;31.13
63916;BME280;50094;51.356;-0.196;2023-01-05T08:46:45;101283.70;;;24.68;31.11
63916;BME280;50094;51.356;-0.196;2023-01-05T08:49:12;101282.66;;;24.63;31.10
63916;BME280;50094;51.356;-0.196;2023-01-05T08:51:39;101281.89;;;24.62;31.08
63916;BME280;50094;51.356;-0.196;2023-01-05T08:54:06;101280.52;;;24.09;31.10
63916;BME280;50094;51.356;-0.196;2023-01-05T08:56:33;101286.58;;;24.57;31.11
63916;BME280;50094;51.356;-0.196;2023-01-05T08:59:01;101289.43;;;24.28;31.13
63916;BME280;50094;51.356;-0.196;2023-01-05T09:01:28;101290.42;;;24.56;31.13
63916;BME280;50094;51.356;-0.196;2023-01-05T09:03:55;101292.79;;;24.55;31.15
63916;BME280;50094;51.356;-0.196;2023-01-05T09:06:22;101290.35;;;24.52;31.16
63916;BME280;50094;51.356;-0.196;2023-01-05T09:08:49;101290.93;;;24.49;31.19
63916;BME280;50094;51.356;-0.196;2023-01-05T09:11:17;101294.05;;;24.52;31.17
63916;BME280;50094;51.356;-0.196;2023-01-05T09:13:47;101289.18;;;24.47;31.21
63916;BME280;50094;51.356;-0.196;2023-01-05T09:16:17;101285.53;;;24.16;31.24
63916;BME280;50094;51.356;-0.196;2023-01-05T09:18:45;101285.56;;;24.18;31.23
63916;BME280;50094;51.356;-0.196;2023-01-05T09:21:13;101288.16;;;24.14;31.27
63916;BME280;50094;51.356;-0.196;2023-01-05T09:23:41;101287.21;;;24.42;31.28
63916;BME280;50094;51.356;-0.196;2023-01-05T09:26:10;101285.74;;;24.42;31.29
63916;BME280;50094;51.356;-0.196;2023-01-05T09:28:38;101284.36;;;24.37;31.33
63916;BME280;50094;51.356;-0.196;2023-01-05T09:31:07;101284.17;;;24.38;31.34
63916;BME280;50094;51.356;-0.196;2023-01-05T09:33:34;101280.86;;;24.43;31.34
63916;BME280;50094;51.356;-0.196;2023-01-05T09:36:01;101279.26;;;24.41;31.35
63916;BME280;50094;51.356;-0.196;2023-01-05T09:38:29;101277.08;;;24.41;31.36
63916;BME280;50094;51.356;-0.196;2023-01-05T09:41:01;101280.51;;;24.48;31.33
63916;BME280;50094;51.356;-0.196;2023-01-05T09:43:34;101275.08;;;24.47;31.33
63916;BME280;50094;51.356;-0.196;2023-01-05T09:46:04;101271.19;;;24.19;31.34
63916;BME280;50094;51.356;-0.196;2023-01-05T09:48:38;101272.51;;;24.43;31.35
63916;BME280;50094;51.356;-0.196;2023-01-05T09:51:06;101272.60;;;24.46;31.33
63916;BME280;50094;51.356;-0.196;2023-01-05T09:53:35;101270.57;;;24.42;31.35
63916;BME280;50094;51.356;-0.196;2023-01-05T09:56:03;101274.05;;;24.12;31.37
63916;BME280;50094;51.356;-0.196;2023-01-05T09:58:34;101275.21;;;24.43;31.36
63916;BME280;50094;51.356;-0.196;2023-01-05T10:01:08;101270.78;;;24.47;31.35
63916;BME280;50094;51.356;-0.196;2023-01-05T10:03:39;101272.10;;;24.47;31.35
63916;BME280;50094;51.356;-0.196;2023-01-05T10:06:12;101275.64;;;24.48;31.34
63916;BME280;50094;51.356;-0.196;2023-01-05T10:08:42;101274.27;;;24.48;31.35
63916;BME280;50094;51.356;-0.196;2023-01-05T10:11:14;101267.36;;;24.46;31.35
63916;BME280;50094;51.356;-0.196;2023-01-05T10:13:52;101266.69;;;24.20;31.35
63916;BME280;50094;51.356;-0.196;2023-01-05T10:16:22;101266.27;;;24.46;31.35
63916;BME280;50094;51.356;-0.196;2023-01-05T10:18:49;101268.88;;;24.45;31.36
63916;BME280;50094;51.356;-0.196;2023-01-05T10:21:21;101267.73;;;24.47;31.36
63916;BME280;50094;51.356;-0.196;2023-01-05T10:24:06;101272.78;;;24.44;31.37
63916;BME280;50094;51.356;-0.196;2023-01-05T10:26:41;101274.91;;;24.43;31.36
63916;BME280;50094;51.356;-0.196;2023-01-05T10:29:10;101275.17;;;24.49;31.34
63916;BME280;50094;51.356;-0.196;2023-01-05T10:31:45;101274.70;;;24.44;31.35
63916;BME280;50094;51.356;-0.196;2023-01-05T10:34:19;101273.96;;;24.45;31.36
63916;BME280;50094;51.356;-0.196;2023-01-05T10:36:57;101275.71;;;24.43;31.37
63916;BME280;50094;51.356;-0.196;2023-01-05T10:39:37;101274.99;;;24.43;31.38
63916;BME280;50094;51.356;-0.196;2023-01-05T10:42:15;101272.69;;;24.48;31.36
63916;BME280;50094;51.356;-0.196;2023-01-05T10:44:52;101273.89;;;24.69;31.37
63916;BME280;50094;51.356;-0.196;2023-01-05T10:47:22;101266.23;;;24.41;31.39
63916;BME280;50094;51.356;-0.196;2023-01-05T10:49:51;101264.32;;;24.40;31.41
63916;BME280;50094;51.356;-0.196;2023-01-05T10:52:20;101262.39;;;24.48;31.39
63916;BME280;50094;51.356;-0.196;2023-01-05T10:54:51;101261.37;;;24.48;31.38
63916;BME280;50094;51.356;-0.196;2023-01-05T10:57:37;101257.45;;;24.25;31.36
63916;BME280;50094;51.356;-0.196;2023-01-05T11:00:11;101261.10;;;24.25;31.36
63916;BME280;50094;51.356;-0.196;2023-01-05T11:02:41;101257.70;;;24.55;31.33
63916;BME280;50094;51.356;-0.196;2023-01-05T11:05:24;101263.65;;;24.22;31.35
63916;BME280;50094;51.356;-0.196;2023-01-05T11:07:54;101261.09;;;24.47;31.36
63916;BME280;50094;51.356;-0.196;2023-01-05T11:10:26;101260.80;;;24.47;31.36
63916;BME280;50094;51.356;-0.196;2023-01-05T11:13:00;101261.60;;;24.21;31.36
63916;BME280;50094;51.356;-0.196;2023-01-05T11:15:30;101261.30;;;24.51;31.35
63916;BME280;50094;51.356;-0.196;2023-01-05T11:17:58;101260.00;;;24.23;31.36
63916;BME280;50094;51.356;-0.196;2023-01-05T11:20:27;101257.04;;;24.47;31.36
63916;BME280;50094;51.356;-0.196;2023-01-05T11:22:54;101256.06;;;24.46;31.37
63916;BME280;50094;51.356;-0.196;2023-01-05T11:25:26;101256.19;;;24.54;31.35
63916;BME280;50094;51.356;-0.196;2023-01-05T11:28:26;101250.26;;;24.50;31.36
63916;BME280;50094;51.356;-0.196;2023-01-05T11:30:57;101247.13;;;24.45;31.37
63916;BME280;50094;51.356;-0.196;2023-01-05T11:33:29;101241.07;;;24.47;31.38
63916;BME280;50094;51.356;-0.196;2023-01-05T11:35:57;101237.59;;;24.42;31.39
63916;BME280;50094;51.356;-0.196;2023-01-05T11:38:27;101234.25;;;24.42;31.41
63916;BME280;50094;51.356;-0.196;2023-01-05T11:40:57;101229.47;;;24.48;31.38
63916;BME280;50094;51.356;-0.196;2023-01-05T11:43:26;101231.50;;;24.45;31.40
63916;BME280;50094;51.356;-0.196;2023-01-05T11:45:56;101233.02;;;24.45;31.41
63916;BME280;50094;51.356;-0.196;2023-01-05T11:48:27;101234.11;;;24.42;31.42
63916;BME280;50094;51.356;-0.196;2023-01-05T11:50:56;101232.57;;;24.39;31.42
63916;BME280;50094;51.356;-0.196;2023-01-05T11:53:34;101231.75;;;24.36;31.44
63916;BME280;50094;51.356;-0.196;2023-01-05T11:56:03;101226.72;;;24.36;31.45
63916;BME280;50094;51.356;-0.196;2023-01-05T11:58:32;101220.62;;;24.36;31.46
63916;BME280;50094;51.356;-0.196;2023-01-05T12:01:17;101218.15;;;24.11;31.45
63916;BME280;50094;51.356;-0.196;2023-01-05T12:03:58;101216.64;;;24.38;31.46
63916;BME280;50094;51.356;-0.196;2023-01-05T12:06:36;101214.86;;;24.11;31.42
63916;BME280;50094;51.356;-0.196;2023-01-05T12:09:13;101204.40;;;24.44;31.41
63916;BME280;50094;51.356;-0.196;2023-01-05T12:11:47;101209.19;;;24.43;31.40
63916;BME280;50094;51.356;-0.196;2023-01-05T12:14:31;101209.11;;;24.38;31.43
63916;BME280;50094;51.356;-0.196;2023-01-05T12:17:11;101208.53;;;24.14;31.43
63916;BME280;50094;51.356;-0.196;2023-01-05T12:19:51;101198.48;;;24.10;31.44
63916;BME280;50094;51.356;-0.196;2023-01-05T12:23:36;101197.24;;;24.35;31.44
63916;BME280;50094;51.356;-0.196;2023-01-05T12:26:16;101198.24;;;24.54;31.47
63916;BME280;50094;51.356;-0.196;2023-01-05T12:28:52;101196.06;;;24.26;31.48
63916;BME280;50094;51.356;-0.196;2023-01-05T12:31:34;101196.90;;;24.33;31.47
63916;BME280;50094;51.356;-0.196;2023-01-05T12:34:26;101197.30;;;24.31;31.48
63916;BME280;50094;51.356;-0.196;2023-01-05T12:37:09;101198.39;;;24.31;31.49
63916;BME280;50094;51.356;-0.196;2023-01-05T12:39:55;101196.16;;;24.35;31.48
63916;BME280;50094;51.356;-0.196;2023-01-05T12:42:36;101191.55;;;24.35;31.47
63916;BME280;50094;51.356;-0.196;2023-01-05T12:45:33;101193.01;;;24.32;31.46
63916;BME280;50094;51.356;-0.196;2023-01-05T12:48:06;101190.40;;;24.09;31.47
63916;BME280;50094;51.356;-0.196;2023-01-05T12:50:39;101187.39;;;24.39;31.46
63916;BME280;50094;51.356;-0.196;2023-01-05T12:53:15;101180.28;;;24.36;31.41
63916;BME280;50094;51.356;-0.196;2023-01-05T12:55:47;101169.44;;;24.33;31.44